createdAt,value
2023-01-19T00:02:17.505Z,31.27
2023-01-19T00:12:46.294Z,21.77
2023-01-19T00:23:08.568Z,18.00
2023-01-19T00:33:29.747Z,26.50
2023-01-19T00:43:50.821Z,25.03
2023-01-19T00:54:12.364Z,25.77
2023-01-19T01:04:33.932Z,32.20
2023-01-19T01:14:55.492Z,33.27
2023-01-19T01:25:22.463Z,33.27
2023-01-19T01:35:43.756Z,34.73
2023-01-19T01:46:05.390Z,21.17
2023-01-19T01:56:35.300Z,27.40
2023-01-19T02:07:15.129Z,27.07
2023-01-19T02:17:36.305Z,16.67
2023-01-19T02:27:57.629Z,19.43
2023-01-19T02:38:20.920Z,27.87
2023-01-19T02:48:42.871Z,31.02
2023-01-19T02:59:48.585Z,29.10
2023-01-19T03:10:31.261Z,30.53
2023-01-19T03:20:56.213Z,22.83
2023-01-19T03:31:26.373Z,38.67
2023-01-19T03:41:50.454Z,45.00
2023-01-19T03:52:12.897Z,55.07
2023-01-19T04:02:35.178Z,21.17
2023-01-19T04:13:01.848Z,30.20
2023-01-19T04:23:24.049Z,29.87
2023-01-19T04:33:45.602Z,23.98
2023-01-19T04:44:07.100Z,34.83
2023-01-19T04:54:28.621Z,37.10
2023-01-19T05:04:50.191Z,37.57
2023-01-19T05:15:11.915Z,47.43
2023-01-19T05:25:33.062Z,57.50
2023-01-19T05:35:55.241Z,67.27
2023-01-19T05:46:25.972Z,60.37
2023-01-19T05:56:47.410Z,60.73
2023-01-19T06:07:08.800Z,44.60
2023-01-19T06:17:32.932Z,38.58
2023-01-19T06:27:54.270Z,28.43
2023-01-19T06:38:18.529Z,40.63
2023-01-19T06:48:40.171Z,33.50
2023-01-19T06:59:01.123Z,45.37
2023-01-19T07:09:22.738Z,27.13
2023-01-19T07:19:43.702Z,14.50
2023-01-19T07:30:05.743Z,17.80
2023-01-19T07:40:27.263Z,16.63
2023-01-19T07:50:51.426Z,12.80
2023-01-19T08:01:13.951Z,13.73
2023-01-19T08:11:35.601Z,12.33
2023-01-19T08:21:58.915Z,10.30
2023-01-19T08:32:20.421Z,9.70
2023-01-19T08:42:41.956Z,11.83
2023-01-19T08:53:06.797Z,14.73
2023-01-19T09:03:28.377Z,14.13
2023-01-19T09:13:49.813Z,13.77
2023-01-19T09:24:11.128Z,14.23
2023-01-19T09:34:32.569Z,16.30
2023-01-19T09:44:54.488Z,13.90
2023-01-19T09:55:26.589Z,13.27
2023-01-19T10:06:02.701Z,13.87
2023-01-19T10:16:40.021Z,12.90
2023-01-19T10:27:02.027Z,14.90
2023-01-19T10:37:37.745Z,14.35
2023-01-19T10:48:06.513Z,16.20
2023-01-19T11:24:14.822Z,22.03
2023-01-19T11:34:39.216Z,20.65
2023-01-19T11:45:14.826Z,15.90
2023-01-19T11:55:52.721Z,15.47
2023-01-19T12:06:32.865Z,16.40
2023-01-19T12:17:00.296Z,16.83
2023-01-19T12:27:42.841Z,15.88
2023-01-19T12:38:32.420Z,13.87
2023-01-19T12:48:53.874Z,15.00
2023-01-19T12:59:27.048Z,15.87
2023-01-19T18:02:01.536Z,14.77
2023-01-19T18:12:26.276Z,12.13
2023-01-19T18:22:47.717Z,11.07
2023-01-19T18:33:08.771Z,11.85
2023-01-19T18:43:30.644Z,9.53
2023-01-19T18:53:52.289Z,9.43
2023-01-19T19:04:13.837Z,9.47
2023-01-19T19:14:35.307Z,9.33
2023-01-19T19:24:56.676Z,10.00
2023-01-19T19:35:20.362Z,10.53
2023-01-19T19:45:41.623Z,9.87
2023-01-19T19:56:05.057Z,9.20
2023-01-19T20:06:27.880Z,10.07
2023-01-19T20:16:49.624Z,10.30
2023-01-19T20:27:10.805Z,9.17
2023-01-19T20:37:32.698Z,9.80
2023-01-19T20:47:54.380Z,11.70
2023-01-19T20:58:15.719Z,14.13
2023-01-19T21:08:37.709Z,11.68
2023-01-19T21:18:59.720Z,11.00
2023-01-19T21:29:20.992Z,12.03
2023-01-19T21:39:42.425Z,11.53
2023-01-19T21:50:04.423Z,12.50
2023-01-19T22:00:27.275Z,12.23
2023-01-19T22:10:49.174Z,12.73
